Brockton, Massachusetts
Current Conditions -  °F | °C
As of 11:53 PM on Sunday 19 Oct 2014 (Local Time) from KOWD Reporting Station
Overcast Overcast  
Wind Chill: 40°   Ceiling: 5000
Heat Index: 44°   Visibility: 10mi
Dew Point: 28°   Wind: 8mph
Humidity: 53%   Direction: 300°WNW
Pressure: 29.96"   Gusts: NA
Location:  42.08°N, 71.02°W
Report Text: KOWD 200353Z AUTO 30007KT 10SM OVC050 07/M02 A2996 RMK AO2 SLP145 T00671022
Loading
Personal Weather Stations






























Interactive Weather Map
Tropical Storm Tracking
New forecast layout! Learn more

10-Day Weather Forecast

Advertisements
Track Severe Weather on mobile